METAR Data
IDs: Format: Raw Decoded Include TAF

Data at: 1949 UTC 26 Sep 2021

EPLL 261930Z 08006KT CAVOK 13/13 Q1021